sensor_id;sensor_type;location;lat;lon;timestamp;pressure;altitude;pressure_sealevel;temperature;humidity
17383;BME280;8809;51.892;8.384;2023-04-07T00:01:54;100515.00;;;8.25;100.00
17383;BME280;8809;51.892;8.384;2023-04-07T00:04:21;100514.19;;;8.26;100.00
17383;BME280;8809;51.892;8.384;2023-04-07T00:06:49;100516.03;;;8.28;100.00
17383;BME280;8809;51.892;8.384;2023-04-07T00:09:16;100509.06;;;8.27;100.00
17383;BME280;8809;51.892;8.384;2023-04-07T00:11:43;100517.75;;;8.28;100.00
17383;BME280;8809;51.892;8.384;2023-04-07T00:14:10;100501.25;;;8.27;100.00
17383;BME280;8809;51.892;8.384;2023-04-07T00:16:40;100507.44;;;8.29;100.00
17383;BME280;8809;51.892;8.384;2023-04-07T00:19:07;100505.63;;;8.28;100.00
17383;BME280;8809;51.892;8.384;2023-04-07T00:21:34;100501.25;;;8.27;100.00
17383;BME280;8809;51.892;8.384;2023-04-07T00:24:03;100500.31;;;8.25;100.00
17383;BME280;8809;51.892;8.384;2023-04-07T00:26:30;100502.59;;;8.19;100.00
17383;BME280;8809;51.892;8.384;2023-04-07T00:28:57;100500.00;;;8.19;100.00
17383;BME280;8809;51.892;8.384;2023-04-07T00:31:25;100496.38;;;8.15;100.00
17383;BME280;8809;51.892;8.384;2023-04-07T00:33:54;100488.41;;;8.12;100.00
17383;BME280;8809;51.892;8.384;2023-04-07T00:36:22;100490.19;;;8.13;100.00
17383;BME280;8809;51.892;8.384;2023-04-07T00:38:49;100483.81;;;8.07;100.00
17383;BME280;8809;51.892;8.384;2023-04-07T00:41:16;100479.44;;;8.06;100.00
17383;BME280;8809;51.892;8.384;2023-04-07T00:43:43;100482.94;;;8.06;100.00
17383;BME280;8809;51.892;8.384;2023-04-07T00:46:11;100486.34;;;8.05;100.00
17383;BME280;8809;51.892;8.384;2023-04-07T00:48:38;100484.56;;;8.04;100.00
17383;BME280;8809;51.892;8.384;2023-04-07T00:51:08;100486.09;;;8.01;100.00
17383;BME280;8809;51.892;8.384;2023-04-07T00:53:35;100480.81;;;7.99;100.00
17383;BME280;8809;51.892;8.384;2023-04-07T00:56:03;100479.94;;;7.99;100.00
17383;BME280;8809;51.892;8.384;2023-04-07T00:58:30;100482.59;;;8.00;100.00
17383;BME280;8809;51.892;8.384;2023-04-07T01:01:03;100481.63;;;7.98;100.00
17383;BME280;8809;51.892;8.384;2023-04-07T01:03:37;100477.28;;;7.97;100.00
17383;BME280;8809;51.892;8.384;2023-04-07T01:06:08;100479.78;;;7.96;100.00
17383;BME280;8809;51.892;8.384;2023-04-07T01:08:44;100474.59;;;7.96;100.00
17383;BME280;8809;51.892;8.384;2023-04-07T01:11:20;100475.50;;;7.96;100.00
17383;BME280;8809;51.892;8.384;2023-04-07T01:13:50;100474.44;;;7.93;100.00
17383;BME280;8809;51.892;8.384;2023-04-07T01:16:23;100463.16;;;7.92;100.00
17383;BME280;8809;51.892;8.384;2023-04-07T01:18:53;100460.47;;;7.91;100.00
17383;BME280;8809;51.892;8.384;2023-04-07T01:21:25;100465.69;;;7.91;100.00
17383;BME280;8809;51.892;8.384;2023-04-07T01:24:26;100460.34;;;7.88;100.00
17383;BME280;8809;51.892;8.384;2023-04-07T01:27:16;100462.94;;;7.88;100.00
17383;BME280;8809;51.892;8.384;2023-04-07T01:29:46;100461.16;;;7.87;100.00
17383;BME280;8809;51.892;8.384;2023-04-07T01:32:17;100461.97;;;7.86;100.00
17383;BME280;8809;51.892;8.384;2023-04-07T01:34:46;100459.22;;;7.82;100.00
17383;BME280;8809;51.892;8.384;2023-04-07T01:37:15;100456.63;;;7.82;100.00
17383;BME280;8809;51.892;8.384;2023-04-07T01:39:43;100457.44;;;7.81;100.00
17383;BME280;8809;51.892;8.384;2023-04-07T01:42:11;100458.31;;;7.82;100.00
17383;BME280;8809;51.892;8.384;2023-04-07T01:44:39;100453.94;;;7.81;100.00
17383;BME280;8809;51.892;8.384;2023-04-07T01:47:08;100452.91;;;7.77;100.00
17383;BME280;8809;51.892;8.384;2023-04-07T01:49:37;100452.91;;;7.77;100.00
17383;BME280;8809;51.892;8.384;2023-04-07T01:52:07;100456.41;;;7.78;100.00
17383;BME280;8809;51.892;8.384;2023-04-07T01:54:36;100449.50;;;7.78;100.00
17383;BME280;8809;51.892;8.384;2023-04-07T01:57:03;100447.72;;;7.77;100.00
17383;BME280;8809;51.892;8.384;2023-04-07T01:59:30;100444.22;;;7.77;100.00
17383;BME280;8809;51.892;8.384;2023-04-07T02:01:57;100451.94;;;7.75;100.00
17383;BME280;8809;51.892;8.384;2023-04-07T02:04:36;100445.84;;;7.75;100.00
17383;BME280;8809;51.892;8.384;2023-04-07T02:07:09;100448.28;;;7.72;100.00
17383;BME280;8809;51.892;8.384;2023-04-07T02:09:41;100446.50;;;7.71;100.00
17383;BME280;8809;51.892;8.384;2023-04-07T02:12:10;100449.00;;;7.69;100.00
17383;BME280;8809;51.892;8.384;2023-04-07T02:14:38;100434.28;;;7.68;100.00
17383;BME280;8809;51.892;8.384;2023-04-07T02:17:06;100450.66;;;7.67;100.00
17383;BME280;8809;51.892;8.384;2023-04-07T02:19:35;100444.59;;;7.67;100.00
17383;BME280;8809;51.892;8.384;2023-04-07T02:22:02;100443.69;;;7.66;100.00
17383;BME280;8809;51.892;8.384;2023-04-07T02:24:31;100440.94;;;7.63;100.00
17383;BME280;8809;51.892;8.384;2023-04-07T02:26:58;100437.44;;;7.63;100.00
17383;BME280;8809;51.892;8.384;2023-04-07T02:29:29;100438.34;;;7.63;100.00
17383;BME280;8809;51.892;8.384;2023-04-07T02:31:56;100438.41;;;7.65;100.00
17383;BME280;8809;51.892;8.384;2023-04-07T02:34:23;100441.81;;;7.64;100.00
17383;BME280;8809;51.892;8.384;2023-04-07T02:36:51;100435.81;;;7.65;100.00
17383;BME280;8809;51.892;8.384;2023-04-07T02:39:19;100434.84;;;7.63;100.00
17383;BME280;8809;51.892;8.384;2023-04-07T02:41:46;100442.53;;;7.61;100.00
17383;BME280;8809;51.892;8.384;2023-04-07T02:44:13;100446.94;;;7.62;100.00
17383;BME280;8809;51.892;8.384;2023-04-07T02:46:40;100438.16;;;7.60;100.00
17383;BME280;8809;51.892;8.384;2023-04-07T02:49:07;100448.41;;;7.57;100.00
17383;BME280;8809;51.892;8.384;2023-04-07T02:51:35;100439.75;;;7.57;100.00
17383;BME280;8809;51.892;8.384;2023-04-07T02:54:03;100437.94;;;7.56;100.00
17383;BME280;8809;51.892;8.384;2023-04-07T02:56:30;100432.69;;;7.54;100.00
17383;BME280;8809;51.892;8.384;2023-04-07T02:58:57;100441.28;;;7.53;100.00
17383;BME280;8809;51.892;8.384;2023-04-07T03:01:24;100442.16;;;7.54;100.00
17383;BME280;8809;51.892;8.384;2023-04-07T03:03:52;100437.69;;;7.51;100.00
17383;BME280;8809;51.892;8.384;2023-04-07T03:06:19;100439.34;;;7.49;100.00
17383;BME280;8809;51.892;8.384;2023-04-07T03:08:46;100437.50;;;7.47;100.00
17383;BME280;8809;51.892;8.384;2023-04-07T03:11:15;100440.09;;;7.47;100.00
17383;BME280;8809;51.892;8.384;2023-04-07T03:13:42;100440.00;;;7.45;100.00
17383;BME280;8809;51.892;8.384;2023-04-07T03:16:09;100438.28;;;7.45;100.00
17383;BME280;8809;51.892;8.384;2023-04-07T03:18:36;100443.41;;;7.44;100.00
17383;BME280;8809;51.892;8.384;2023-04-07T03:21:03;100434.63;;;7.42;100.00
17383;BME280;8809;51.892;8.384;2023-04-07T03:23:30;100440.63;;;7.41;100.00
17383;BME280;8809;51.892;8.384;2023-04-07T03:25:57;100433.69;;;7.40;100.00
17383;BME280;8809;51.892;8.384;2023-04-07T03:28:26;100431.91;;;7.39;100.00
17383;BME280;8809;51.892;8.384;2023-04-07T03:30:53;100432.72;;;7.38;100.00
17383;BME280;8809;51.892;8.384;2023-04-07T03:33:20;100432.72;;;7.38;100.00
17383;BME280;8809;51.892;8.384;2023-04-07T03:35:47;100436.22;;;7.38;100.00
17383;BME280;8809;51.892;8.384;2023-04-07T03:38:14;100436.13;;;7.37;100.00
17383;BME280;8809;51.892;8.384;2023-04-07T03:40:41;100424.94;;;7.38;100.00
17383;BME280;8809;51.892;8.384;2023-04-07T03:43:09;100436.03;;;7.35;100.00
17383;BME280;8809;51.892;8.384;2023-04-07T03:45:40;100432.63;;;7.36;100.00
17383;BME280;8809;51.892;8.384;2023-04-07T03:48:07;100432.63;;;7.36;100.00
17383;BME280;8809;51.892;8.384;2023-04-07T03:50:37;100428.34;;;7.37;100.00
17383;BME280;8809;51.892;8.384;2023-04-07T03:53:04;100435.31;;;7.38;100.00
17383;BME280;8809;51.892;8.384;2023-04-07T03:55:33;100435.31;;;7.38;100.00
17383;BME280;8809;51.892;8.384;2023-04-07T03:58:00;100436.13;;;7.37;100.00
17383;BME280;8809;51.892;8.384;2023-04-07T04:00:28;100436.03;;;7.35;100.00
17383;BME280;8809;51.892;8.384;2023-04-07T04:02:59;100430.03;;;7.36;100.00
17383;BME280;8809;51.892;8.384;2023-04-07T04:05:26;100436.75;;;7.33;100.00
17383;BME280;8809;51.892;8.384;2023-04-07T04:07:53;100437.66;;;7.33;100.00
17383;BME280;8809;51.892;8.384;2023-04-07T04:10:20;100440.16;;;7.32;100.00
17383;BME280;8809;51.892;8.384;2023-04-07T04:12:48;100443.75;;;7.34;100.00
17383;BME280;8809;51.892;8.384;2023-04-07T04:15:15;100448.03;;;7.33;100.00
17383;BME280;8809;51.892;8.384;2023-04-07T04:17:43;100445.34;;;7.32;100.00
17383;BME280;8809;51.892;8.384;2023-04-07T04:20:12;100451.34;;;7.31;100.00
17383;BME280;8809;51.892;8.384;2023-04-07T04:22:42;100448.63;;;7.28;100.00
17383;BME280;8809;51.892;8.384;2023-04-07T04:25:09;100443.28;;;7.25;100.00
17383;BME280;8809;51.892;8.384;2023-04-07T04:27:36;100447.47;;;7.23;100.00
17383;BME280;8809;51.892;8.384;2023-04-07T04:30:06;100450.25;;;7.26;100.00
17383;BME280;8809;51.892;8.384;2023-04-07T04:32:33;100457.03;;;7.24;100.00
17383;BME280;8809;51.892;8.384;2023-04-07T04:35:00;100461.44;;;7.25;100.00
17383;BME280;8809;51.892;8.384;2023-04-07T04:37:28;100460.63;;;7.26;100.00
17383;BME280;8809;51.892;8.384;2023-04-07T04:39:57;100454.72;;;7.28;100.00
17383;BME280;8809;51.892;8.384;2023-04-07T04:42:25;100462.41;;;7.27;100.00
17383;BME280;8809;51.892;8.384;2023-04-07T04:44:52;100453.81;;;7.28;100.00
17383;BME280;8809;51.892;8.384;2023-04-07T04:47:19;100458.66;;;7.22;100.00
17383;BME280;8809;51.892;8.384;2023-04-07T04:49:46;100462.16;;;7.22;100.00
17383;BME280;8809;51.892;8.384;2023-04-07T04:52:13;100460.63;;;7.26;100.00
17383;BME280;8809;51.892;8.384;2023-04-07T04:54:42;100463.13;;;7.24;100.00
17383;BME280;8809;51.892;8.384;2023-04-07T04:57:09;100456.25;;;7.25;100.00
17383;BME280;8809;51.892;8.384;2023-04-07T04:59:36;100462.25;;;7.24;100.00
17383;BME280;8809;51.892;8.384;2023-04-07T05:02:04;100464.75;;;7.22;100.00
17383;BME280;8809;51.892;8.384;2023-04-07T05:04:31;100460.38;;;7.21;100.00
17383;BME280;8809;51.892;8.384;2023-04-07T05:06:58;100460.44;;;7.23;100.00
17383;BME280;8809;51.892;8.384;2023-04-07T05:09:25;100467.28;;;7.21;100.00
17383;BME280;8809;51.892;8.384;2023-04-07T05:11:54;100465.63;;;7.23;100.00
17383;BME280;8809;51.892;8.384;2023-04-07T05:14:22;100468.22;;;7.23;100.00
17383;BME280;8809;51.892;8.384;2023-04-07T05:16:49;100477.00;;;7.25;100.00
17383;BME280;8809;51.892;8.384;2023-04-07T05:19:17;100463.84;;;7.22;100.00
17383;BME280;8809;51.892;8.384;2023-04-07T05:21:45;100466.44;;;7.22;100.00
17383;BME280;8809;51.892;8.384;2023-04-07T05:24:12;100474.22;;;7.22;100.00
17383;BME280;8809;51.892;8.384;2023-04-07T05:26:39;100473.41;;;7.23;100.00
17383;BME280;8809;51.892;8.384;2023-04-07T05:29:07;100469.00;;;7.20;100.00
17383;BME280;8809;51.892;8.384;2023-04-07T05:31:34;100482.84;;;7.21;100.00
17383;BME280;8809;51.892;8.384;2023-04-07T05:34:02;100477.66;;;7.21;100.00
17383;BME280;8809;51.892;8.384;2023-04-07T05:36:29;100477.72;;;7.22;100.00
17383;BME280;8809;51.892;8.384;2023-04-07T05:38:56;100482.09;;;7.23;100.00
17383;BME280;8809;51.892;8.384;2023-04-07T05:41:23;100477.97;;;7.27;100.00
17383;BME280;8809;51.892;8.384;2023-04-07T05:43:50;100479.59;;;7.25;100.00
17383;BME280;8809;51.892;8.384;2023-04-07T05:46:19;100481.38;;;7.26;100.00
17383;BME280;8809;51.892;8.384;2023-04-07T05:48:46;100484.94;;;7.28;100.00
17383;BME280;8809;51.892;8.384;2023-04-07T05:51:16;100489.34;;;7.29;100.00
17383;BME280;8809;51.892;8.384;2023-04-07T05:53:43;100484.22;;;7.30;100.00
17383;BME280;8809;51.892;8.384;2023-04-07T05:56:10;100489.47;;;7.32;100.00
17383;BME280;8809;51.892;8.384;2023-04-07T05:58:37;100492.97;;;7.32;100.00
17383;BME280;8809;51.892;8.384;2023-04-07T06:01:04;100493.84;;;7.33;100.00
17383;BME280;8809;51.892;8.384;2023-04-07T06:03:33;100495.63;;;7.34;100.00
17383;BME280;8809;51.892;8.384;2023-04-07T06:06:00;100494.91;;;7.36;100.00
17383;BME280;8809;51.892;8.384;2023-04-07T06:08:27;100495.81;;;7.37;100.00
17383;BME280;8809;51.892;8.384;2023-04-07T06:10:54;100499.03;;;7.33;100.00
17383;BME280;8809;51.892;8.384;2023-04-07T06:13:21;100500.84;;;7.34;100.00
17383;BME280;8809;51.892;8.384;2023-04-07T06:15:49;100504.41;;;7.36;100.00
17383;BME280;8809;51.892;8.384;2023-04-07T06:18:16;100508.78;;;7.37;100.00
17383;BME280;8809;51.892;8.384;2023-04-07T06:20:45;100508.88;;;7.38;100.00
17383;BME280;8809;51.892;8.384;2023-04-07T06:23:12;100513.16;;;7.38;100.00
17383;BME280;8809;51.892;8.384;2023-04-07T06:25:39;100509.75;;;7.39;100.00
17383;BME280;8809;51.892;8.384;2023-04-07T06:28:06;100511.38;;;7.37;100.00
17383;BME280;8809;51.892;8.384;2023-04-07T06:30:34;100510.56;;;7.38;100.00
17383;BME280;8809;51.892;8.384;2023-04-07T06:33:01;100520.94;;;7.38;100.00
17383;BME280;8809;51.892;8.384;2023-04-07T06:35:28;100516.56;;;7.37;100.00
17383;BME280;8809;51.892;8.384;2023-04-07T06:37:56;100516.66;;;7.38;100.00
17383;BME280;8809;51.892;8.384;2023-04-07T06:40:24;100513.16;;;7.38;100.00
17383;BME280;8809;51.892;8.384;2023-04-07T06:42:52;100519.47;;;7.43;100.00
17383;BME280;8809;51.892;8.384;2023-04-07T06:45:21;100516.06;;;7.44;100.00
17383;BME280;8809;51.892;8.384;2023-04-07T06:47:48;100524.03;;;7.47;100.00
17383;BME280;8809;51.892;8.384;2023-04-07T06:50:16;100527.53;;;7.48;100.00
17383;BME280;8809;51.892;8.384;2023-04-07T06:52:45;100530.19;;;7.49;100.00
17383;BME280;8809;51.892;8.384;2023-04-07T06:55:14;100530.19;;;7.49;100.00
17383;BME280;8809;51.892;8.384;2023-04-07T06:57:42;100531.81;;;7.47;100.00
17383;BME280;8809;51.892;8.384;2023-04-07T07:00:09;100531.91;;;7.49;100.00
17383;BME280;8809;51.892;8.384;2023-04-07T07:02:37;100537.31;;;7.53;100.00
17383;BME280;8809;51.892;8.384;2023-04-07T07:05:04;100539.91;;;7.53;100.00
17383;BME280;8809;51.892;8.384;2023-04-07T07:07:32;100543.50;;;7.55;100.00
17383;BME280;8809;51.892;8.384;2023-04-07T07:10:00;100542.84;;;7.59;100.00
17383;BME280;8809;51.892;8.384;2023-04-07T07:12:36;100543.06;;;7.64;100.00
17383;BME280;8809;51.892;8.384;2023-04-07T07:15:04;100545.84;;;7.67;100.00
17383;BME280;8809;51.892;8.384;2023-04-07T07:17:31;100546.66;;;7.66;100.00
17383;BME280;8809;51.892;8.384;2023-04-07T07:19:59;100549.47;;;7.70;100.00
17383;BME280;8809;51.892;8.384;2023-04-07T07:22:26;100555.63;;;7.72;100.00
17383;BME280;8809;51.892;8.384;2023-04-07T07:24:53;100555.81;;;7.75;100.00
17383;BME280;8809;51.892;8.384;2023-04-07T07:27:21;100557.59;;;7.76;100.00
17383;BME280;8809;51.892;8.384;2023-04-07T07:29:50;100561.16;;;7.78;100.00
17383;BME280;8809;51.892;8.384;2023-04-07T07:32:17;100566.50;;;7.81;100.00
17383;BME280;8809;51.892;8.384;2023-04-07T07:34:44;100563.19;;;7.84;100.00
17383;BME280;8809;51.892;8.384;2023-04-07T07:37:11;100571.06;;;7.86;100.00
17383;BME280;8809;51.892;8.384;2023-04-07T07:39:38;100572.97;;;7.90;100.00
17383;BME280;8809;51.892;8.384;2023-04-07T07:42:05;100571.44;;;7.93;100.00
17383;BME280;8809;51.892;8.384;2023-04-07T07:44:32;100576.72;;;7.95;100.00
17383;BME280;8809;51.892;8.384;2023-04-07T07:47:01;100581.00;;;7.94;100.00
17383;BME280;8809;51.892;8.384;2023-04-07T07:49:28;100580.28;;;7.97;100.00
17383;BME280;8809;51.892;8.384;2023-04-07T07:51:55;100581.31;;;8.00;100.00
17383;BME280;8809;51.892;8.384;2023-04-07T07:54:24;100581.41;;;8.02;100.00
17383;BME280;8809;51.892;8.384;2023-04-07T07:56:51;100580.75;;;8.06;100.00
17383;BME280;8809;51.892;8.384;2023-04-07T07:59:18;100583.56;;;8.10;100.00
17383;BME280;8809;51.892;8.384;2023-04-07T08:01:46;100581.22;;;8.15;100.00
17383;BME280;8809;51.892;8.384;2023-04-07T08:04:15;100593.53;;;8.19;100.00
17383;BME280;8809;51.892;8.384;2023-04-07T08:06:42;100596.47;;;8.25;100.00
17383;BME280;8809;51.892;8.384;2023-04-07T08:09:09;100596.53;;;8.27;100.00
17383;BME280;8809;51.892;8.384;2023-04-07T08:11:36;100601.81;;;8.28;100.00
17383;BME280;8809;51.892;8.384;2023-04-07T08:14:03;100595.78;;;8.29;100.00
17383;BME280;8809;51.892;8.384;2023-04-07T08:16:30;100599.56;;;8.34;100.00
17383;BME280;8809;51.892;8.384;2023-04-07T08:18:58;100598.81;;;8.37;100.00
17383;BME280;8809;51.892;8.384;2023-04-07T08:21:27;100601.56;;;8.40;100.00
17383;BME280;8809;51.892;8.384;2023-04-07T08:23:54;100608.78;;;8.45;100.00
17383;BME280;8809;51.892;8.384;2023-04-07T08:26:21;100607.13;;;8.47;100.00
17383;BME280;8809;51.892;8.384;2023-04-07T08:28:49;100611.91;;;8.56;100.00
17383;BME280;8809;51.892;8.384;2023-04-07T08:31:18;100609.69;;;8.64;100.00
17383;BME280;8809;51.892;8.384;2023-04-07T08:33:47;100606.56;;;8.71;100.00
17383;BME280;8809;51.892;8.384;2023-04-07T08:36:20;100609.47;;;8.77;100.00
17383;BME280;8809;51.892;8.384;2023-04-07T08:38:49;100625.31;;;8.81;100.00
17383;BME280;8809;51.892;8.384;2023-04-07T08:41:19;100613.28;;;8.83;100.00
17383;BME280;8809;51.892;8.384;2023-04-07T08:43:47;100626.41;;;8.86;100.00
17383;BME280;8809;51.892;8.384;2023-04-07T08:46:18;100625.75;;;8.90;100.00
17383;BME280;8809;51.892;8.384;2023-04-07T08:48:51;100630.22;;;8.93;100.00
17383;BME280;8809;51.892;8.384;2023-04-07T08:51:25;100628.56;;;8.95;100.00
17383;BME280;8809;51.892;8.384;2023-04-07T08:53:59;100621.56;;;8.94;100.00
17383;BME280;8809;51.892;8.384;2023-04-07T08:56:31;100622.63;;;8.98;100.00
17383;BME280;8809;51.892;8.384;2023-04-07T08:58:59;100639.13;;;8.98;100.00
17383;BME280;8809;51.892;8.384;2023-04-07T09:01:27;100628.81;;;9.00;100.00
17383;BME280;8809;51.892;8.384;2023-04-07T09:03:56;100641.06;;;9.02;100.00
17383;BME280;8809;51.892;8.384;2023-04-07T09:06:23;100632.44;;;9.03;100.00
17383;BME280;8809;51.892;8.384;2023-04-07T09:08:51;100639.56;;;9.07;100.00
17383;BME280;8809;51.892;8.384;2023-04-07T09:11:21;100634.53;;;9.10;100.00
17383;BME280;8809;51.892;8.384;2023-04-07T09:13:49;100636.44;;;9.14;100.00
17383;BME280;8809;51.892;8.384;2023-04-07T09:16:16;100643.72;;;9.21;100.00
17383;BME280;8809;51.892;8.384;2023-04-07T09:18:44;100651.75;;;9.26;100.00
17383;BME280;8809;51.892;8.384;2023-04-07T09:21:12;100656.22;;;9.28;100.00
17383;BME280;8809;51.892;8.384;2023-04-07T09:23:40;100651.91;;;9.29;100.00
17383;BME280;8809;51.892;8.384;2023-04-07T09:26:23;100654.66;;;9.32;100.00
17383;BME280;8809;51.892;8.384;2023-04-07T09:28:53;100654.69;;;9.34;100.00
17383;BME280;8809;51.892;8.384;2023-04-07T09:31:21;100658.28;;;9.36;100.00
17383;BME280;8809;51.892;8.384;2023-04-07T09:33:50;100650.53;;;9.37;100.00
17383;BME280;8809;51.892;8.384;2023-04-07T09:36:18;100654.03;;;9.38;100.00
17383;BME280;8809;51.892;8.384;2023-04-07T09:38:46;100651.44;;;9.38;100.00
17383;BME280;8809;51.892;8.384;2023-04-07T09:41:15;100650.47;;;9.36;100.00
17383;BME280;8809;51.892;8.384;2023-04-07T09:43:44;100651.59;;;9.41;100.00
17383;BME280;8809;51.892;8.384;2023-04-07T09:46:13;100660.34;;;9.43;100.00
17383;BME280;8809;51.892;8.384;2023-04-07T09:48:41;100655.50;;;9.32;100.00
17383;BME280;8809;51.892;8.384;2023-04-07T09:51:11;100652.25;;;9.37;100.00
17383;BME280;8809;51.892;8.384;2023-04-07T09:53:43;100659.25;;;9.38;100.00
17383;BME280;8809;51.892;8.384;2023-04-07T09:56:15;100664.53;;;9.39;100.00
17383;BME280;8809;51.892;8.384;2023-04-07T09:58:45;100658.34;;;9.37;100.00
17383;BME280;8809;51.892;8.384;2023-04-07T10:01:14;100667.94;;;9.38;100.00
17383;BME280;8809;51.892;8.384;2023-04-07T10:03:43;100661.19;;;9.42;100.00
17383;BME280;8809;51.892;8.384;2023-04-07T10:06:11;100659.44;;;9.42;100.00
17383;BME280;8809;51.892;8.384;2023-04-07T10:08:39;100669.28;;;9.48;100.00
17383;BME280;8809;51.892;8.384;2023-04-07T10:11:08;100671.19;;;9.52;100.00
17383;BME280;8809;51.892;8.384;2023-04-07T10:13:38;100666.13;;;9.55;100.00
17383;BME280;8809;51.892;8.384;2023-04-07T10:16:07;100673.28;;;9.59;100.00
17383;BME280;8809;51.892;8.384;2023-04-07T10:18:35;100675.97;;;9.60;100.00
17383;BME280;8809;51.892;8.384;2023-04-07T10:21:04;100678.50;;;9.59;100.00
17383;BME280;8809;51.892;8.384;2023-04-07T10:23:52;100686.06;;;9.54;100.00
17383;BME280;8809;51.892;8.384;2023-04-07T10:26:24;100688.59;;;9.53;100.00
17383;BME280;8809;51.892;8.384;2023-04-07T10:29:05;100686.97;;;9.55;100.00
17383;BME280;8809;51.892;8.384;2023-04-07T10:31:36;100685.19;;;9.54;100.00
17383;BME280;8809;51.892;8.384;2023-04-07T10:34:03;100690.09;;;9.48;100.00
17383;BME280;8809;51.892;8.384;2023-04-07T10:36:31;100691.06;;;9.50;100.00
17383;BME280;8809;51.892;8.384;2023-04-07T10:39:20;100690.09;;;9.48;100.00
17383;BME280;8809;51.892;8.384;2023-04-07T10:41:48;100695.47;;;9.51;100.00
17383;BME280;8809;51.892;8.384;2023-04-07T10:44:45;100692.16;;;9.55;100.00
17383;BME280;8809;51.892;8.384;2023-04-07T10:47:14;100690.69;;;9.60;100.00
17383;BME280;8809;51.892;8.384;2023-04-07T10:50:17;100697.81;;;9.64;100.00
17383;BME280;8809;51.892;8.384;2023-04-07T10:52:45;100700.56;;;9.67;100.00
17383;BME280;8809;51.892;8.384;2023-04-07T10:55:33;100705.94;;;9.70;100.00
17383;BME280;8809;51.892;8.384;2023-04-07T10:58:17;100708.66;;;9.73;100.00
17383;BME280;8809;51.892;8.384;2023-04-07T11:01:16;100699.88;;;9.71;100.00
17383;BME280;8809;51.892;8.384;2023-04-07T11:03:58;100701.97;;;9.78;100.00
17383;BME280;8809;51.892;8.384;2023-04-07T11:06:25;100704.56;;;9.78;100.00
17383;BME280;8809;51.892;8.384;2023-04-07T11:08:53;100707.50;;;9.86;100.00
17383;BME280;8809;51.892;8.384;2023-04-07T11:11:37;100708.00;;;9.96;100.00
17383;BME280;8809;51.892;8.384;2023-04-07T11:14:05;100713.50;;;10.02;100.00
17383;BME280;8809;51.892;8.384;2023-04-07T11:16:39;100704.69;;;10.00;100.00
17383;BME280;8809;51.892;8.384;2023-04-07T11:19:09;100711.78;;;10.03;100.00
17383;BME280;8809;51.892;8.384;2023-04-07T11:21:36;100712.00;;;10.08;100.00
17383;BME280;8809;51.892;8.384;2023-04-07T11:24:04;100710.47;;;10.13;100.00
17383;BME280;8809;51.892;8.384;2023-04-07T11:26:36;100713.00;;;10.11;100.00
17383;BME280;8809;51.892;8.384;2023-04-07T11:29:04;100716.03;;;10.19;100.00
17383;BME280;8809;51.892;8.384;2023-04-07T11:31:32;100717.19;;;10.25;100.00
17383;BME280;8809;51.892;8.384;2023-04-07T11:34:01;100717.50;;;10.33;100.00
17383;BME280;8809;51.892;8.384;2023-04-07T11:36:32;100721.41;;;10.43;100.00
17383;BME280;8809;51.892;8.384;2023-04-07T11:38:59;100728.59;;;10.48;100.00
17383;BME280;8809;51.892;8.384;2023-04-07T11:41:29;100727.16;;;10.55;100.00
17383;BME280;8809;51.892;8.384;2023-04-07T11:44:07;100730.59;;;10.54;100.00
17383;BME280;8809;51.892;8.384;2023-04-07T11:46:36;100722.28;;;10.62;100.00
17383;BME280;8809;51.892;8.384;2023-04-07T11:49:11;100723.25;;;10.64;100.00
17383;BME280;8809;51.892;8.384;2023-04-07T11:51:42;100745.75;;;10.62;100.00
17383;BME280;8809;51.892;8.384;2023-04-07T11:54:09;100731.97;;;10.65;100.00
17383;BME280;8809;51.892;8.384;2023-04-07T11:56:44;100728.72;;;10.70;100.00
17383;BME280;8809;51.892;8.384;2023-04-07T11:59:22;100734.19;;;10.76;100.00
17383;BME280;8809;51.892;8.384;2023-04-07T12:01:50;100734.19;;;10.76;100.00
17383;BME280;8809;51.892;8.384;2023-04-07T12:04:17;100732.84;;;10.86;100.00
17383;BME280;8809;51.892;8.384;2023-04-07T12:06:47;100741.03;;;10.94;100.00
17383;BME280;8809;51.892;8.384;2023-04-07T12:09:28;100739.50;;;10.99;100.00
17383;BME280;8809;51.892;8.384;2023-04-07T12:11:57;100747.47;;;11.02;100.00
17383;BME280;8809;51.892;8.384;2023-04-07T12:14:25;100740.09;;;11.12;100.00
17383;BME280;8809;51.892;8.384;2023-04-07T12:16:53;100740.56;;;11.25;100.00
17383;BME280;8809;51.892;8.384;2023-04-07T12:19:22;100740.00;;;11.32;100.00
17383;BME280;8809;51.892;8.384;2023-04-07T12:21:51;100739.34;;;11.37;100.00
17383;BME280;8809;51.892;8.384;2023-04-07T12:24:18;100743.00;;;11.41;100.00
17383;BME280;8809;51.892;8.384;2023-04-07T12:26:46;100749.41;;;11.49;100.00
17383;BME280;8809;51.892;8.384;2023-04-07T12:29:14;100751.94;;;11.47;100.00
17383;BME280;8809;51.892;8.384;2023-04-07T12:31:41;100747.56;;;11.46;100.00
17383;BME280;8809;51.892;8.384;2023-04-07T12:34:08;100746.66;;;11.46;100.00
17383;BME280;8809;51.892;8.384;2023-04-07T12:36:35;100745.66;;;11.42;100.00
17383;BME280;8809;51.892;8.384;2023-04-07T12:39:04;100750.16;;;11.46;100.00
17383;BME280;8809;51.892;8.384;2023-04-07T12:41:32;100751.66;;;11.40;100.00
17383;BME280;8809;51.892;8.384;2023-04-07T12:43:59;100755.69;;;11.32;100.00
17383;BME280;8809;51.892;8.384;2023-04-07T12:46:26;100754.06;;;11.35;100.00
17383;BME280;8809;51.892;8.384;2023-04-07T12:48:54;100756.94;;;11.41;100.00
17383;BME280;8809;51.892;8.384;2023-04-07T12:51:21;100756.81;;;11.38;100.00
17383;BME280;8809;51.892;8.384;2023-04-07T12:53:48;100766.38;;;11.38;100.00
17383;BME280;8809;51.892;8.384;2023-04-07T12:56:17;100764.63;;;11.38;100.00
17383;BME280;8809;51.892;8.384;2023-04-07T12:58:44;100768.00;;;11.36;100.00
17383;BME280;8809;51.892;8.384;2023-04-07T13:01:11;100763.06;;;11.21;100.00
17383;BME280;8809;51.892;8.384;2023-04-07T13:03:39;100763.38;;;11.29;100.00
17383;BME280;8809;51.892;8.384;2023-04-07T13:06:06;100763.97;;;11.22;100.00
17383;BME280;8809;51.892;8.384;2023-04-07T13:08:33;100766.06;;;11.30;100.00